Time;durP1;ratioP1;P1;durP2;ratioP2;P2;SDS_P1;SDS_P2;PMS_P1;PMS_P2;Temp;Humidity;BMP_temperature;BMP_pressure;BME280_temperature;BME280_humidity;BME280_pressure;Samples;Min_cycle;Max_cycle;Signal;HPM_P1;HPM_P2
2022/03/30 00:01:06;;;;;;;84.60;55.80;;;;;;;7.19;79.55;97980.80;105256;1268;74880;-73
2022/03/30 00:03:32;;;;;;;90.60;59.90;;;;;;;7.19;79.63;97978.65;105289;1268;70408;-74
2022/03/30 00:05:59;;;;;;;93.20;60.20;;;;;;;7.21;79.72;97977.98;105264;1267;74471;-73
2022/03/30 00:08:26;;;;;;;88.10;58.40;;;;;;;7.22;79.75;97975.42;105267;1268;61383;-73
2022/03/30 00:10:53;;;;;;;90.50;58.70;;;;;;;7.23;79.83;97973.03;105315;1268;61374;-74
2022/03/30 00:13:20;;;;;;;90.60;61.30;;;;;;;7.24;79.93;97970.89;105300;1268;76945;-74
2022/03/30 00:15:46;;;;;;;107.90;76.20;;;;;;;7.24;79.94;97972.46;105118;1268;69479;-73
2022/03/30 00:18:13;;;;;;;86.70;58.20;;;;;;;7.24;79.86;97973.54;105271;1268;74391;-75
2022/03/30 00:20:40;;;;;;;87.10;59.10;;;;;;;7.24;79.97;97972.42;105272;1268;61278;-74
2022/03/30 00:23:08;;;;;;;88.50;61.10;;;;;;;7.23;80.02;97970.40;105042;1268;61122;-74
2022/03/30 00:25:35;;;;;;;90.40;62.00;;;;;;;7.21;80.17;97970.19;105253;1268;76671;-73
2022/03/30 00:28:02;;;;;;;84.00;56.60;;;;;;;7.19;80.28;97967.86;105309;1268;69911;-73
2022/03/30 00:30:30;;;;;;;87.80;59.20;;;;;;;7.18;80.23;97966.72;105256;1268;74444;-73
2022/03/30 00:32:56;;;;;;;86.80;58.80;;;;;;;7.17;80.36;97964.89;105291;1268;61357;-72
2022/03/30 00:35:23;;;;;;;98.90;63.00;;;;;;;7.15;80.34;97965.88;105269;1268;61247;-73
2022/03/30 00:37:50;;;;;;;93.00;65.30;;;;;;;7.14;80.47;97964.00;105264;1268;74631;-73
2022/03/30 00:40:17;;;;;;;90.10;61.50;;;;;;;7.12;80.52;97957.09;105275;1268;69123;-74
2022/03/30 00:42:45;;;;;;;97.10;66.50;;;;;;;7.09;80.51;97955.15;105225;1271;73428;-72
2022/03/30 00:45:18;;;;;;;95.80;62.70;;;;;;;7.07;80.58;97957.95;105256;1268;61287;-75
2022/03/30 00:47:45;;;;;;;86.50;61.40;;;;;;;7.05;80.73;97953.82;105359;1268;61254;-73
2022/03/30 00:50:16;;;;;;;87.00;60.10;;;;;;;7.03;80.94;97953.45;105331;1268;75425;-73
2022/03/30 00:52:47;;;;;;;83.10;58.10;;;;;;;7.01;81.13;97952.34;105354;1268;69844;-74
2022/03/30 00:55:17;;;;;;;83.90;57.10;;;;;;;6.99;81.18;97951.75;105117;1268;213591;-73
2022/03/30 00:57:46;;;;;;;81.50;58.50;;;;;;;6.98;81.28;97949.04;105385;1268;61366;-73
2022/03/30 01:00:15;;;;;;;82.90;56.50;;;;;;;6.96;81.39;97948.98;105110;1269;61312;-74
2022/03/30 01:02:43;;;;;;;89.80;59.40;;;;;;;6.96;81.36;97946.70;105270;1268;76189;-73
2022/03/30 01:05:11;;;;;;;84.90;61.40;;;;;;;6.97;81.50;97946.26;105065;1271;70341;-73
2022/03/30 01:07:37;;;;;;;73.80;54.50;;;;;;;6.99;81.47;97946.11;105393;1268;73218;-74
2022/03/30 01:10:05;;;;;;;79.70;54.30;;;;;;;7.00;81.30;97940.03;105286;1268;61253;-73
2022/03/30 01:12:34;;;;;;;79.70;54.20;;;;;;;7.01;81.29;97938.71;105262;1268;61262;-73
2022/03/30 01:15:01;;;;;;;78.10;53.00;;;;;;;7.01;81.10;97932.53;105264;1268;76343;-74
2022/03/30 01:17:27;;;;;;;72.60;53.30;;;;;;;7.01;81.04;97931.13;105218;1268;69358;-73
2022/03/30 01:19:54;;;;;;;71.20;52.30;;;;;;;7.00;81.04;97932.06;105274;1268;74391;-73
2022/03/30 01:22:20;;;;;;;74.70;54.20;;;;;;;6.99;81.13;97933.39;105284;1268;61368;-73
2022/03/30 01:24:47;;;;;;;81.50;59.50;;;;;;;6.97;81.20;97935.32;105328;1268;61256;-73
2022/03/30 01:27:14;;;;;;;80.30;60.80;;;;;;;6.94;81.22;97933.95;105016;1268;75394;-74
2022/03/30 01:32:28;;;;;;;80.70;57.00;;;;;;;6.91;81.41;97930.42;105301;1268;73322;-74
2022/03/30 01:34:58;;;;;;;75.80;54.70;;;;;;;6.90;81.49;97929.26;105499;1268;61295;-73
2022/03/30 01:37:28;;;;;;;72.60;53.30;;;;;;;6.89;81.65;97928.64;105334;1268;62491;-74
2022/03/30 01:39:56;;;;;;;78.40;52.80;;;;;;;6.87;81.70;97927.90;105302;1268;75334;-73
2022/03/30 01:42:24;;;;;;;84.20;56.50;;;;;;;6.86;81.76;97924.28;105282;1271;69272;-73
2022/03/30 01:44:52;;;;;;;71.70;53.30;;;;;;;6.85;81.89;97926.10;105157;1268;72538;-73
2022/03/30 01:47:19;;;;;;;83.30;62.30;;;;;;;6.83;82.03;97924.14;105293;1268;61466;-73
2022/03/30 01:49:47;;;;;;;90.00;65.00;;;;;;;6.83;82.06;97918.84;105333;1268;61194;-73
2022/03/30 01:52:16;;;;;;;82.50;58.90;;;;;;;6.83;82.14;97909.81;105345;1268;75353;-73
2022/03/30 01:54:44;;;;;;;79.50;58.00;;;;;;;6.85;82.14;97906.70;105373;1268;69466;-73
2022/03/30 01:57:12;;;;;;;73.70;54.40;;;;;;;6.84;82.22;97904.28;105409;1268;73480;-74
2022/03/30 01:59:41;;;;;;;77.50;54.60;;;;;;;6.83;82.36;97898.31;105053;1269;61409;-72
2022/03/30 02:02:08;;;;;;;80.90;54.40;;;;;;;6.82;82.43;97894.35;105348;1268;61174;-73
2022/03/30 02:04:36;;;;;;;73.70;53.00;;;;;;;6.79;82.47;97894.05;105428;1268;76420;-73
2022/03/30 02:07:05;;;;;;;73.70;53.70;;;;;;;6.76;82.54;97892.80;105347;1268;70321;-74
2022/03/30 02:09:32;;;;;;;78.00;53.40;;;;;;;6.71;82.64;97892.24;105460;1268;73442;-73
2022/03/30 02:11:59;;;;;;;77.80;52.90;;;;;;;6.66;82.68;97891.42;105620;1268;61388;-74
2022/03/30 02:14:27;;;;;;;78.10;53.30;;;;;;;6.60;82.80;97891.09;105312;1271;61272;-73
2022/03/30 02:16:54;;;;;;;76.40;53.70;;;;;;;6.54;82.89;97891.86;105443;1267;76419;-73
2022/03/30 02:19:20;;;;;;;80.20;54.80;;;;;;;6.50;83.05;97888.96;105460;1268;69495;-73
2022/03/30 02:21:47;;;;;;;79.80;55.20;;;;;;;6.46;83.18;97884.80;105289;1268;74574;-74
2022/03/30 02:24:13;;;;;;;78.40;56.40;;;;;;;6.43;83.34;97886.23;105316;1268;61188;-74
2022/03/30 02:26:40;;;;;;;82.20;57.90;;;;;;;6.41;83.47;97883.73;105350;1268;61355;-74
2022/03/30 02:29:07;;;;;;;87.70;61.80;;;;;;;6.39;83.63;97885.98;105314;1268;75282;-74
2022/03/30 02:31:34;;;;;;;83.10;60.20;;;;;;;6.36;83.82;97884.92;105039;1268;69616;-73
2022/03/30 02:34:01;;;;;;;83.50;62.10;;;;;;;6.34;83.91;97880.34;105313;1268;72072;-73
2022/03/30 02:36:27;;;;;;;92.60;61.40;;;;;;;6.32;84.09;97878.15;105266;1268;61520;-73
2022/03/30 02:38:55;;;;;;;87.70;62.60;;;;;;;6.32;84.24;97875.71;105296;1268;61263;-75
2022/03/30 02:41:22;;;;;;;89.80;63.20;;;;;;;6.30;84.31;97871.91;105271;1268;74973;-73
2022/03/30 02:43:49;;;;;;;84.00;61.20;;;;;;;6.30;84.47;97875.51;105034;1268;68958;-72
2022/03/30 02:46:16;;;;;;;92.80;64.30;;;;;;;6.27;84.59;97869.52;105294;1268;73505;-73
2022/03/30 02:48:42;;;;;;;91.80;63.40;;;;;;;6.25;84.62;97870.16;105046;1268;61351;-73
2022/03/30 02:51:09;;;;;;;96.10;65.70;;;;;;;6.20;84.71;97869.83;105282;1268;61800;-74
2022/03/30 02:53:36;;;;;;;89.60;61.30;;;;;;;6.13;84.76;97872.17;105301;1268;75374;-74
2022/03/30 02:56:03;;;;;;;89.30;59.90;;;;;;;6.08;84.83;97876.76;105261;1268;70349;-73
2022/03/30 02:58:31;;;;;;;88.90;62.20;;;;;;;6.02;84.98;97877.35;105244;1268;74855;-73
2022/03/30 03:00:58;;;;;;;86.40;60.80;;;;;;;5.95;85.08;97876.39;105312;1268;61244;-73
2022/03/30 03:03:25;;;;;;;94.50;63.40;;;;;;;5.86;85.21;97879.75;105311;1268;61518;-74
2022/03/30 03:05:52;;;;;;;93.80;61.70;;;;;;;5.79;85.39;97879.52;105257;1268;76300;-73
2022/03/30 03:08:18;;;;;;;86.40;60.60;;;;;;;5.71;85.53;97877.96;105029;1271;70379;-74
2022/03/30 03:10:47;;;;;;;91.00;60.00;;;;;;;5.65;85.62;97882.94;105237;1268;73435;-74
2022/03/30 03:13:16;;;;;;;87.20;62.00;;;;;;;5.60;85.90;97881.87;105354;1268;61261;-75
2022/03/30 03:15:45;;;;;;;84.50;61.50;;;;;;;5.54;86.23;97889.45;105321;1268;61258;-74
2022/03/30 03:18:13;;;;;;;92.60;64.10;;;;;;;5.49;86.46;97890.66;105350;1268;76426;-74
2022/03/30 03:20:45;;;;;;;94.20;65.20;;;;;;;5.45;86.56;97887.02;105334;1268;71407;-74
2022/03/30 03:23:13;;;;;;;88.50;62.80;;;;;;;5.43;86.88;97886.62;105222;1269;74467;-74
2022/03/30 03:25:40;;;;;;;95.60;65.20;;;;;;;5.40;86.99;97885.63;105271;1268;61367;-73
2022/03/30 03:28:12;;;;;;;94.00;65.10;;;;;;;5.38;87.14;97885.36;105410;1268;62027;-75
2022/03/30 03:30:40;;;;;;;94.70;66.50;;;;;;;5.37;87.34;97880.67;105292;1268;75862;-76
2022/03/30 03:33:08;;;;;;;97.50;67.20;;;;;;;5.37;87.70;97878.41;105298;1268;67900;-76
2022/03/30 03:35:35;;;;;;;96.30;66.50;;;;;;;5.36;87.88;97878.61;105276;1268;74151;-74
2022/03/30 03:38:03;;;;;;;103.20;68.10;;;;;;;5.36;87.97;97880.41;105280;1268;61305;-74
2022/03/30 03:40:31;;;;;;;104.20;68.30;;;;;;;5.36;88.07;97876.20;105325;1268;62016;-73
2022/03/30 03:42:59;;;;;;;94.10;63.70;;;;;;;5.34;88.20;97874.88;105317;1268;75433;-74
2022/03/30 03:45:27;;;;;;;98.20;65.90;;;;;;;5.32;88.19;97878.67;105049;1268;70395;-74
2022/03/30 03:47:54;;;;;;;99.00;68.40;;;;;;;5.30;88.20;97876.92;105283;1268;72977;-76
2022/03/30 03:50:21;;;;;;;93.70;63.00;;;;;;;5.27;88.27;97876.19;105249;1268;61265;-74
2022/03/30 03:52:48;;;;;;;101.20;67.60;;;;;;;5.25;88.44;97872.95;105253;1268;62042;-74
2022/03/30 03:55:15;;;;;;;91.90;63.10;;;;;;;5.24;88.47;97877.28;105286;1269;74421;-74
2022/03/30 03:57:42;;;;;;;93.50;62.20;;;;;;;5.21;88.34;97872.52;104963;1268;70439;-73
2022/03/30 04:00:11;;;;;;;93.80;62.90;;;;;;;5.17;88.37;97871.53;105246;1268;73621;-73
2022/03/30 04:02:39;;;;;;;90.90;61.60;;;;;;;5.13;88.43;97869.52;105272;1268;61364;-75
2022/03/30 04:05:08;;;;;;;88.60;61.90;;;;;;;5.08;88.58;97865.61;105099;1271;61227;-74
2022/03/30 04:07:37;;;;;;;97.70;66.10;;;;;;;5.04;88.66;97869.52;105339;1268;76185;-73
2022/03/30 04:10:06;;;;;;;101.60;66.10;;;;;;;5.00;89.16;97869.77;105390;1269;69361;-75
2022/03/30 04:12:33;;;;;;;101.60;67.60;;;;;;;4.97;89.55;97869.64;105416;1268;74412;-74
2022/03/30 04:15:00;;;;;;;100.20;67.10;;;;;;;4.92;90.07;97865.89;105293;1268;61304;-74
2022/03/30 04:17:27;;;;;;;104.40;69.50;;;;;;;4.87;90.53;97862.72;105327;1268;61278;-74
2022/03/30 04:19:54;;;;;;;100.10;68.70;;;;;;;4.82;90.94;97861.23;105272;1268;74802;-75
2022/03/30 04:22:20;;;;;;;102.90;67.90;;;;;;;4.79;90.99;97862.64;105090;1269;69992;-74
2022/03/30 04:24:47;;;;;;;103.10;68.90;;;;;;;4.75;91.14;97860.97;105298;1268;74045;-73
2022/03/30 04:27:13;;;;;;;98.80;67.60;;;;;;;4.70;91.13;97858.41;105305;1268;61339;-75
2022/03/30 04:29:41;;;;;;;107.10;69.80;;;;;;;4.67;91.31;97863.06;105314;1268;62160;-74
2022/03/30 04:32:08;;;;;;;105.60;69.70;;;;;;;4.62;91.48;97859.81;105280;1268;75340;-74
2022/03/30 04:34:35;;;;;;;102.80;70.10;;;;;;;4.59;91.53;97863.33;105297;1268;69963;-75
2022/03/30 04:37:02;;;;;;;102.80;70.50;;;;;;;4.56;91.77;97865.45;105260;1268;74422;-74
2022/03/30 04:39:28;;;;;;;106.50;72.60;;;;;;;4.53;91.90;97863.16;105281;1268;61705;-73
2022/03/30 04:41:55;;;;;;;106.70;75.70;;;;;;;4.50;92.16;97861.08;104988;1272;61410;-73
2022/03/30 04:44:22;;;;;;;106.10;75.60;;;;;;;4.48;92.91;97861.73;105267;1271;74987;-73
2022/03/30 04:46:48;;;;;;;113.00;77.70;;;;;;;4.48;93.16;97861.02;105295;1268;70712;-73
2022/03/30 04:49:15;;;;;;;117.70;79.30;;;;;;;4.50;93.47;97860.02;105250;1271;74757;-73
2022/03/30 04:51:42;;;;;;;113.20;77.50;;;;;;;4.53;93.89;97864.77;105233;1269;61536;-73
2022/03/30 04:54:09;;;;;;;114.50;82.10;;;;;;;4.53;94.13;97864.23;105255;1270;62059;-73
2022/03/30 04:56:36;;;;;;;119.70;84.70;;;;;;;4.56;94.63;97858.60;105269;1269;76371;-73
2022/03/30 04:59:02;;;;;;;127.30;92.90;;;;;;;4.61;95.03;97860.95;105257;1271;70854;-73
2022/03/30 05:01:29;;;;;;;130.30;88.80;;;;;;;4.67;95.22;97863.39;105257;1268;72922;-74
2022/03/30 05:03:56;;;;;;;119.90;83.90;;;;;;;4.70;95.35;97861.40;105271;1269;61291;-73
2022/03/30 05:06:22;;;;;;;114.70;84.10;;;;;;;4.75;95.43;97858.87;105242;1271;62081;-73
2022/03/30 05:08:49;;;;;;;117.10;81.50;;;;;;;4.79;95.42;97858.59;105256;1271;75463;-74
2022/03/30 05:11:16;;;;;;;100.40;74.10;;;;;;;4.83;95.25;97857.48;105280;1271;70589;-73
2022/03/30 05:13:42;;;;;;;103.00;76.30;;;;;;;4.87;94.84;97860.94;105252;1271;74408;-74
2022/03/30 05:16:09;;;;;;;94.70;71.50;;;;;;;4.91;94.65;97861.88;105256;1271;61317;-73
2022/03/30 05:18:35;;;;;;;100.00;71.30;;;;;;;4.95;94.42;97864.64;105229;1272;61974;-74
2022/03/30 05:21:02;;;;;;;95.10;70.60;;;;;;;5.01;94.15;97865.35;105084;1271;76446;-73
2022/03/30 05:23:29;;;;;;;105.70;77.90;;;;;;;5.05;94.11;97870.31;105267;1271;69587;-73
2022/03/30 05:25:55;;;;;;;106.70;80.50;;;;;;;5.14;94.16;97868.00;105271;1271;71837;-73
2022/03/30 05:28:22;;;;;;;103.40;78.90;;;;;;;5.25;94.14;97869.27;105251;1271;61191;-73
2022/03/30 05:30:49;;;;;;;98.70;78.20;;;;;;;5.38;93.94;97869.69;105290;1271;62003;-74
2022/03/30 05:33:15;;;;;;;105.00;79.10;;;;;;;5.53;93.78;97869.42;105088;1274;75280;-73
2022/03/30 05:35:42;;;;;;;107.90;81.80;;;;;;;5.69;93.59;97866.58;105286;1271;70906;-73
2022/03/30 05:38:08;;;;;;;102.70;81.40;;;;;;;5.87;93.37;97864.21;105243;1271;73407;-74
2022/03/30 05:40:35;;;;;;;108.60;84.60;;;;;;;6.05;93.22;97863.39;105260;1269;61195;-74
2022/03/30 05:43:02;;;;;;;114.30;87.10;;;;;;;6.21;92.99;97864.29;105285;1268;62074;-74
2022/03/30 05:45:29;;;;;;;102.90;80.30;;;;;;;6.40;92.83;97864.59;105286;1268;75565;-73
2022/03/30 05:47:56;;;;;;;109.00;86.30;;;;;;;6.57;92.68;97864.27;105038;1271;67634;-74
2022/03/30 05:50:23;;;;;;;112.40;85.10;;;;;;;6.81;92.65;97856.45;105298;1268;73362;-75
2022/03/30 05:52:51;;;;;;;102.50;83.30;;;;;;;7.04;92.33;97853.92;105510;1268;61214;-75
2022/03/30 05:55:18;;;;;;;96.80;79.80;;;;;;;7.26;91.99;97855.91;105126;1271;61289;-74
2022/03/30 05:57:44;;;;;;;102.30;82.80;;;;;;;7.49;91.78;97849.64;105577;1268;76306;-82
2022/03/30 06:00:14;;;;;;;97.00;79.40;;;;;;;7.63;91.28;97847.60;106266;1268;67134;-83
2022/03/30 06:02:42;;;;;;;97.40;79.20;;;;;;;7.76;90.97;97848.44;105371;1274;72908;-83
2022/03/30 06:05:09;;;;;;;100.80;77.90;;;;;;;7.93;90.63;97851.77;106139;1268;61570;-89
2022/03/30 06:07:36;;;;;;;95.50;77.40;;;;;;;8.07;90.16;97849.31;106241;1268;61156;-73
2022/03/30 06:10:04;;;;;;;96.50;76.10;;;;;;;8.19;89.81;97850.49;105560;1268;76207;-84
2022/03/30 06:12:31;;;;;;;101.30;76.40;;;;;;;8.32;89.47;97843.52;105697;1268;70407;-83
2022/03/30 06:14:57;;;;;;;95.80;72.90;;;;;;;8.40;89.22;97841.64;105731;1268;72332;-83
2022/03/30 06:17:24;;;;;;;99.60;74.30;;;;;;;8.50;88.91;97847.80;105477;1268;61380;-78
2022/03/30 06:19:53;;;;;;;96.00;76.20;;;;;;;8.63;88.60;97849.61;105409;1268;61664;-80
2022/03/30 06:22:20;;;;;;;86.50;69.60;;;;;;;8.76;88.01;97849.55;105738;1271;75962;-81
2022/03/30 06:24:48;;;;;;;79.50;63.80;;;;;;;8.86;87.14;97847.64;105734;1268;70527;-74
2022/03/30 06:27:14;;;;;;;80.30;62.20;;;;;;;8.89;86.73;97847.45;105253;1268;74472;-76
2022/03/30 06:29:41;;;;;;;80.00;62.50;;;;;;;8.90;86.71;97845.28;105287;1268;61303;-75
2022/03/30 06:32:08;;;;;;;89.70;62.00;;;;;;;8.92;86.47;97839.92;105236;1268;61242;-75
2022/03/30 06:34:37;;;;;;;76.60;57.10;;;;;;;8.97;86.23;97840.61;105265;1268;75363;-74
2022/03/30 06:37:05;;;;;;;76.40;55.80;;;;;;;8.96;85.85;97846.73;105501;1268;70442;-75
2022/03/30 06:39:33;;;;;;;81.40;59.50;;;;;;;8.93;85.55;97843.95;105332;1268;73843;-76
2022/03/30 06:42:00;;;;;;;76.40;55.40;;;;;;;8.95;85.44;97849.66;105292;1267;61268;-74
2022/03/30 06:44:27;;;;;;;77.10;55.00;;;;;;;9.02;85.04;97847.86;105316;1268;61263;-75
2022/03/30 06:46:53;;;;;;;76.10;54.80;;;;;;;9.10;84.60;97849.34;105023;1268;75317;-75
2022/03/30 06:49:20;;;;;;;77.20;54.50;;;;;;;9.19;84.14;97847.54;105291;1268;69426;-77
2022/03/30 06:51:47;;;;;;;70.60;54.10;;;;;;;9.26;83.61;97850.91;105353;1268;74706;-74
2022/03/30 06:54:14;;;;;;;67.10;48.10;;;;;;;9.35;83.33;97848.45;105299;1268;61383;-75
2022/03/30 06:56:41;;;;;;;68.90;50.50;;;;;;;9.42;82.52;97848.36;105273;1268;62065;-75
2022/03/30 06:59:08;;;;;;;80.40;54.20;;;;;;;9.45;82.14;97845.81;105331;1268;76783;-75
2022/03/30 07:01:35;;;;;;;73.10;52.50;;;;;;;9.54;81.67;97849.52;105355;1268;70352;-75
2022/03/30 07:04:02;;;;;;;65.90;50.40;;;;;;;9.60;80.86;97850.45;105318;1268;74428;-73
2022/03/30 07:06:28;;;;;;;67.10;52.00;;;;;;;9.65;80.38;97849.15;105134;1269;61336;-74
2022/03/30 07:11:41;;;;;;;81.70;54.40;;;;;;;9.71;79.62;97843.71;105096;1268;75414;-74
2022/03/30 07:14:08;;;;;;;61.10;46.30;;;;;;;9.74;79.42;97843.52;105385;1268;69386;-75
2022/03/30 07:16:34;;;;;;;65.10;49.40;;;;;;;9.75;78.38;97846.41;105234;1268;72902;-75
2022/03/30 07:19:01;;;;;;;61.70;47.80;;;;;;;9.76;78.18;97847.42;104986;1269;61274;-76
2022/03/30 07:21:28;;;;;;;60.90;45.10;;;;;;;9.80;77.34;97845.31;105103;1268;61317;-75
2022/03/30 07:23:54;;;;;;;59.10;42.60;;;;;;;9.84;77.12;97845.45;105286;1268;74891;-75
2022/03/30 07:26:21;;;;;;;57.10;44.80;;;;;;;9.96;76.85;97843.46;105368;1268;70456;-76
2022/03/30 07:28:48;;;;;;;56.50;45.00;;;;;;;10.09;76.36;97844.27;105386;1268;73441;-75
2022/03/30 07:31:14;;;;;;;56.00;42.50;;;;;;;10.14;75.09;97845.46;105359;1268;61169;-74
2022/03/30 07:33:41;;;;;;;54.20;41.30;;;;;;;10.25;75.20;97841.38;105099;1268;61553;-76
2022/03/30 07:36:07;;;;;;;52.10;40.60;;;;;;;10.41;74.75;97841.45;105272;1268;75370;-75
2022/03/30 07:38:34;;;;;;;54.30;41.00;;;;;;;10.63;73.92;97842.13;105011;1268;70504;-75
2022/03/30 07:41:02;;;;;;;49.30;36.50;;;;;;;10.79;73.23;97838.58;105244;1268;74450;-75
2022/03/30 07:43:29;;;;;;;49.80;36.60;;;;;;;10.89;71.72;97836.31;105249;1268;61275;-75
2022/03/30 07:45:55;;;;;;;51.90;39.80;;;;;;;10.97;70.84;97838.43;105052;1269;61553;-76
2022/03/30 07:48:22;;;;;;;50.90;39.90;;;;;;;10.99;70.10;97841.14;105295;1268;76311;-74
2022/03/30 07:50:48;;;;;;;53.70;38.90;;;;;;;10.99;69.79;97839.17;105314;1268;70381;-75
2022/03/30 07:53:15;;;;;;;47.60;36.30;;;;;;;11.02;69.10;97831.23;105102;1268;73335;-75
2022/03/30 07:55:42;;;;;;;46.10;35.20;;;;;;;11.04;67.92;97828.10;105302;1268;60072;-75
2022/03/30 07:58:08;;;;;;;45.90;33.60;;;;;;;11.04;67.64;97831.81;105329;1268;61205;-75
2022/03/30 08:00:35;;;;;;;46.20;36.70;;;;;;;11.08;67.37;97827.75;105312;1268;76305;-75
2022/03/30 08:03:03;;;;;;;43.10;33.10;;;;;;;11.18;67.63;97827.34;105341;1268;69414;-73
2022/03/30 08:05:30;;;;;;;42.60;33.20;;;;;;;11.32;66.97;97822.44;105323;1268;74753;-75
2022/03/30 08:07:56;;;;;;;43.90;34.10;;;;;;;11.45;66.37;97826.35;105092;1268;61258;-74
2022/03/30 08:10:23;;;;;;;46.20;36.10;;;;;;;11.54;65.71;97826.65;105312;1268;62090;-75
2022/03/30 08:12:49;;;;;;;47.30;35.80;;;;;;;11.50;65.35;97824.56;105307;1268;76735;-76
2022/03/30 08:15:16;;;;;;;44.80;35.90;;;;;;;11.53;64.93;97822.13;105381;1267;70671;-75
2022/03/30 08:17:44;;;;;;;48.00;36.90;;;;;;;11.55;64.72;97821.40;105432;1268;74423;-76
2022/03/30 08:22:25;;;;;;;46.40;36.30;;;;;;;11.59;64.53;97820.83;105566;1268;61349;-75
2022/03/30 08:23:01;;;;;;;43.60;36.00;;;;;;;11.70;64.47;97822.89;105280;1268;61482;-74
2022/03/30 08:25:28;;;;;;;46.20;35.60;;;;;;;11.84;64.35;97818.98;105391;1268;75424;-74
2022/03/30 08:27:55;;;;;;;46.90;35.10;;;;;;;11.95;63.49;97816.23;105318;1268;69742;-74
2022/03/30 08:30:21;;;;;;;42.80;32.60;;;;;;;11.97;62.85;97814.11;105323;1268;73746;-76
2022/03/30 08:32:48;;;;;;;43.00;33.10;;;;;;;11.90;61.22;97812.02;105281;1268;61448;-75
2022/03/30 08:35:15;;;;;;;43.30;33.30;;;;;;;11.88;61.72;97814.18;105319;1268;62377;-75
2022/03/30 08:37:42;;;;;;;43.90;33.00;;;;;;;11.99;61.20;97815.83;105306;1268;76340;-75
2022/03/30 08:40:08;;;;;;;42.60;34.00;;;;;;;12.07;60.78;97814.76;105300;1268;70394;-75
2022/03/30 08:42:36;;;;;;;42.90;35.00;;;;;;;12.11;60.49;97812.80;105304;1268;71488;-76
2022/03/30 08:45:07;;;;;;;44.40;35.40;;;;;;;12.17;60.17;97814.00;105157;1271;61303;-76
2022/03/30 08:47:35;;;;;;;39.90;33.00;;;;;;;12.19;59.83;97811.74;105273;1268;62075;-75
2022/03/30 08:50:04;;;;;;;39.00;31.30;;;;;;;12.33;60.42;97812.73;105323;1268;75609;-75
2022/03/30 08:52:31;;;;;;;39.50;31.50;;;;;;;12.52;60.23;97814.48;105561;1268;70758;-75
2022/03/30 08:54:59;;;;;;;40.20;31.70;;;;;;;12.69;59.90;97810.23;105310;1268;74489;-75
2022/03/30 08:57:27;;;;;;;41.00;32.10;;;;;;;12.81;59.25;97812.99;105355;1268;61321;-75
2022/03/30 09:00:12;;;;;;;43.80;34.20;;;;;;;12.88;58.39;97811.09;105360;1268;61828;-74
2022/03/30 09:02:44;;;;;;;42.50;33.90;;;;;;;12.91;57.76;97807.98;105342;1268;76522;-74
2022/03/30 09:05:23;;;;;;;40.60;32.00;;;;;;;12.94;57.11;97812.34;105325;1268;69959;-74
2022/03/30 09:07:54;;;;;;;40.10;33.10;;;;;;;12.93;56.84;97811.19;105286;1268;74412;-74
2022/03/30 09:10:23;;;;;;;45.00;37.40;;;;;;;12.94;56.37;97812.34;105189;1268;61145;-74
2022/03/30 09:12:52;;;;;;;44.60;36.70;;;;;;;12.95;56.72;97809.66;105346;1271;61253;-74
2022/03/30 09:15:21;;;;;;;41.70;34.00;;;;;;;13.05;56.58;97805.86;105344;1268;75552;-74
2022/03/30 09:17:47;;;;;;;39.70;33.40;;;;;;;13.16;56.57;97805.00;105319;1268;69450;-75
2022/03/30 09:20:20;;;;;;;40.00;33.70;;;;;;;13.32;56.71;97798.52;105263;1268;73433;-74
2022/03/30 09:22:49;;;;;;;40.50;34.10;;;;;;;13.42;55.69;97801.29;105376;1267;60066;-75
2022/03/30 09:25:16;;;;;;;41.70;33.20;;;;;;;13.51;55.50;97804.34;105486;1268;62027;-74
2022/03/30 09:27:46;;;;;;;38.80;33.20;;;;;;;13.59;55.36;97800.64;105379;1268;75360;-73
2022/03/30 09:30:16;;;;;;;44.20;34.40;;;;;;;13.70;55.40;97794.27;105308;1271;70050;-74
2022/03/30 09:32:45;;;;;;;41.10;33.20;;;;;;;13.85;55.36;97792.37;105421;1268;73418;-76
2022/03/30 09:35:19;;;;;;;42.60;33.30;;;;;;;14.07;55.22;97792.20;105304;1271;61217;-73
2022/03/30 09:38:08;;;;;;;38.50;33.10;;;;;;;14.25;54.62;97781.45;105357;1268;61266;-75
2022/03/30 09:40:50;;;;;;;43.80;34.90;;;;;;;14.39;54.35;97772.61;105297;1271;75476;-75
2022/03/30 09:43:22;;;;;;;40.00;32.40;;;;;;;14.56;53.21;97763.98;105247;1269;70760;-75
2022/03/30 09:46:02;;;;;;;41.20;33.10;;;;;;;14.40;52.59;97764.05;105349;1268;73522;-74
2022/03/30 09:48:32;;;;;;;37.60;29.40;;;;;;;14.41;53.09;97759.27;105338;1268;61293;-75
2022/03/30 09:50:59;;;;;;;36.70;31.80;;;;;;;14.46;52.99;97759.96;105480;1268;62018;-75
2022/03/30 09:53:27;;;;;;;35.10;29.20;;;;;;;14.60;53.08;97753.92;105337;1268;75448;-74
2022/03/30 09:56:01;;;;;;;38.40;31.40;;;;;;;14.74;52.48;97751.98;105044;1268;67616;-75
2022/03/30 09:58:34;;;;;;;38.10;32.00;;;;;;;14.89;52.28;97746.66;105300;1268;74470;-75
2022/03/30 10:01:10;;;;;;;37.50;31.40;;;;;;;14.85;51.02;97748.09;105409;1268;61364;-75
2022/03/30 10:03:44;;;;;;;34.90;29.20;;;;;;;14.83;51.19;97742.41;105363;1268;62087;-75
2022/03/30 10:06:14;;;;;;;34.00;28.30;;;;;;;14.89;51.35;97741.43;105316;1268;76662;-75
2022/03/30 10:08:43;;;;;;;35.30;29.30;;;;;;;14.99;50.54;97737.71;105269;1268;69411;-75
2022/03/30 10:11:12;;;;;;;32.60;28.10;;;;;;;15.04;50.72;97735.42;105361;1271;72270;-75
2022/03/30 10:13:40;;;;;;;33.70;27.80;;;;;;;15.10;50.76;97730.45;105372;1268;61281;-75
2022/03/30 10:16:08;;;;;;;33.50;28.60;;;;;;;15.20;50.01;97726.20;105308;1268;61924;-75
2022/03/30 10:18:35;;;;;;;34.50;27.70;;;;;;;15.24;49.64;97725.73;105480;1268;75476;-75
2022/03/30 10:21:11;;;;;;;33.00;27.80;;;;;;;15.18;48.78;97721.42;105335;1268;69848;-75
2022/03/30 10:24:03;;;;;;;31.20;26.10;;;;;;;15.05;48.86;97715.91;105271;1268;74502;-75
2022/03/30 10:26:43;;;;;;;30.90;26.90;;;;;;;15.28;49.29;97709.20;105299;1268;61188;-75
2022/03/30 10:29:15;;;;;;;31.00;26.90;;;;;;;15.67;49.29;97707.20;105325;1268;61706;-75
2022/03/30 10:31:43;;;;;;;33.60;27.70;;;;;;;15.94;48.38;97697.42;105511;1268;75880;-75
2022/03/30 10:34:27;;;;;;;30.00;26.00;;;;;;;16.10;47.79;97691.10;105306;1268;70419;-76
2022/03/30 10:37:05;;;;;;;31.30;27.20;;;;;;;16.30;47.45;97687.73;105315;1268;74541;-75
2022/03/30 10:39:32;;;;;;;33.10;26.40;;;;;;;16.54;47.09;97690.40;105209;1267;61282;-76
2022/03/30 10:42:07;;;;;;;30.20;27.00;;;;;;;16.76;46.73;97687.47;105326;1268;62039;-76
2022/03/30 10:44:41;;;;;;;27.90;24.50;;;;;;;16.87;46.43;97685.34;105351;1268;75240;-76
2022/03/30 10:47:19;;;;;;;26.20;23.40;;;;;;;16.93;46.03;97682.46;105348;1268;69992;-75
2022/03/30 10:49:52;;;;;;;24.70;22.10;;;;;;;17.00;45.53;97681.12;105375;1268;73015;-74
2022/03/30 10:52:32;;;;;;;27.50;23.00;;;;;;;16.98;45.24;97678.21;105355;1268;61277;-76
2022/03/30 10:55:13;;;;;;;27.40;23.40;;;;;;;17.03;45.34;97680.29;105377;1268;62400;-76
2022/03/30 10:57:46;;;;;;;26.80;23.80;;;;;;;17.08;45.35;97673.06;105346;1268;76741;-76
2022/03/30 11:00:39;;;;;;;25.60;21.70;;;;;;;17.11;45.09;97671.81;105342;1268;70359;-75
2022/03/30 11:03:16;;;;;;;25.40;21.70;;;;;;;17.03;44.45;97669.30;104601;1277;73501;-75
2022/03/30 11:05:45;;;;;;;26.80;23.80;;;;;;;16.93;44.40;97664.87;104596;1277;61478;-76
2022/03/30 11:08:33;;;;;;;27.80;24.70;;;;;;;16.84;44.37;97665.02;104781;1277;62103;-75
2022/03/30 11:11:04;;;;;;;28.80;24.20;;;;;;;16.67;44.00;97664.27;104590;1277;75706;-76
2022/03/30 11:13:30;;;;;;;30.50;23.90;;;;;;;16.55;44.28;97661.96;104792;1277;70403;-75
2022/03/30 11:15:58;;;;;;;30.10;25.10;;;;;;;16.49;43.95;97663.09;104596;1277;73440;-77
2022/03/30 11:18:26;;;;;;;27.10;23.20;;;;;;;16.42;44.00;97660.63;104606;1277;61321;-75
2022/03/30 11:21:08;;;;;;;27.70;23.10;;;;;;;16.36;43.90;97652.80;104580;1277;62035;-77
2022/03/30 11:23:39;;;;;;;27.70;22.90;;;;;;;16.34;44.09;97650.73;104607;1277;76178;-75